createdAt,value
2018-04-12T00:01:52.531Z,68.30
2018-04-12T00:04:18.698Z,68.00
2018-04-12T00:06:44.870Z,68.10
2018-04-12T00:09:10.953Z,67.80
2018-04-12T00:11:36.984Z,67.20
2018-04-12T00:14:03.035Z,67.00
2018-04-12T00:16:29.061Z,67.40
2018-04-12T00:18:55.106Z,67.60
2018-04-12T00:21:21.258Z,67.70
2018-04-12T00:23:48.027Z,67.50
2018-04-12T00:26:14.064Z,67.40
2018-04-12T00:28:40.106Z,67.80
2018-04-12T00:31:06.127Z,67.40
2018-04-12T00:33:32.263Z,67.40
2018-04-12T00:35:58.279Z,67.40
2018-04-12T00:38:24.310Z,67.20
2018-04-12T00:40:50.321Z,67.20
2018-04-12T00:43:16.358Z,67.00
2018-04-12T00:45:42.354Z,67.70
2018-04-12T00:48:08.489Z,68.10
2018-04-12T00:50:34.487Z,68.80
2018-04-12T00:53:00.574Z,69.00
2018-04-12T00:55:27.319Z,69.50
2018-04-12T00:57:54.090Z,69.10
2018-04-12T01:00:20.145Z,69.10
2018-04-12T01:02:46.191Z,69.30
2018-04-12T01:05:13.178Z,68.40
2018-04-12T01:07:39.210Z,68.40
2018-04-12T01:10:05.246Z,68.70
2018-04-12T01:12:31.391Z,69.60
2018-04-12T01:14:57.422Z,70.50
2018-04-12T01:17:23.450Z,70.50
2018-04-12T01:19:49.566Z,70.00
2018-04-12T01:22:15.605Z,69.60
2018-04-12T01:24:41.639Z,69.60
2018-04-12T01:27:07.798Z,70.20
2018-04-12T01:29:33.802Z,70.00
2018-04-12T01:32:00.618Z,70.70
2018-04-12T01:34:26.636Z,70.00
2018-04-12T01:36:52.770Z,69.20
2018-04-12T01:39:18.771Z,69.00
2018-04-12T01:41:44.774Z,70.30
2018-04-12T01:44:10.835Z,70.30
2018-04-12T01:46:36.853Z,70.10
2018-04-12T01:49:02.920Z,69.30
2018-04-12T01:51:29.670Z,69.20
2018-04-12T01:53:55.798Z,69.20
2018-04-12T01:56:21.811Z,71.00
2018-04-12T01:58:48.566Z,71.10
2018-04-12T02:01:14.569Z,71.10
2018-04-12T02:03:41.350Z,70.90
2018-04-12T02:06:07.349Z,70.90
2018-04-12T02:08:33.466Z,70.40
2018-04-12T02:10:59.594Z,70.60
2018-04-12T02:13:25.668Z,70.50
2018-04-12T02:15:51.707Z,70.40
2018-04-12T02:18:17.706Z,70.60
2018-04-12T02:20:43.730Z,70.70
2018-04-12T02:23:09.806Z,70.70
2018-04-12T02:25:36.674Z,71.80
2018-04-12T02:28:02.706Z,71.70
2018-04-12T02:30:28.776Z,71.70
2018-04-12T02:32:54.786Z,71.60
2018-04-12T02:35:20.805Z,72.20
2018-04-12T02:37:46.847Z,72.70
2018-04-12T02:40:13.647Z,73.70
2018-04-12T02:42:39.714Z,73.60
2018-04-12T02:45:06.477Z,74.10
2018-04-12T02:47:32.620Z,74.10
2018-04-12T02:49:58.704Z,75.20
2018-04-12T02:52:24.731Z,75.20
2018-04-12T02:54:50.736Z,74.50
2018-04-12T02:57:16.778Z,75.00
2018-04-12T02:59:43.535Z,75.50
2018-04-12T03:02:10.331Z,75.30
2018-04-12T03:04:36.607Z,75.30
2018-04-12T03:07:02.602Z,74.70
2018-04-12T03:09:28.624Z,74.40
2018-04-12T03:11:54.615Z,74.60
2018-04-12T03:14:20.663Z,73.90
2018-04-12T03:16:46.659Z,73.20
2018-04-12T03:19:12.843Z,72.80
2018-04-12T03:21:39.585Z,72.70
2018-04-12T03:24:06.347Z,73.10
2018-04-12T03:26:32.382Z,73.10
2018-04-12T03:28:58.371Z,73.90
2018-04-12T03:31:25.172Z,76.50
2018-04-12T03:33:51.199Z,76.50
2018-04-12T03:36:17.325Z,76.10
2018-04-12T03:38:43.318Z,75.20
2018-04-12T03:41:09.346Z,74.20
2018-04-12T03:43:35.344Z,73.50
2018-04-12T03:46:01.381Z,73.40
2018-04-12T03:48:27.395Z,73.20
2018-04-12T03:50:53.555Z,73.10
2018-04-12T03:53:19.579Z,73.80
2018-04-12T03:55:45.586Z,74.10
2018-04-12T03:58:11.630Z,74.80
2018-04-12T04:00:37.631Z,75.00
2018-04-12T04:03:03.662Z,75.20
2018-04-12T04:05:29.845Z,75.60
2018-04-12T04:07:56.742Z,76.30
2018-04-12T04:10:22.823Z,76.30
2018-04-12T04:12:48.866Z,75.80
2018-04-12T04:15:14.894Z,76.00
2018-04-12T04:17:40.980Z,75.50
2018-04-12T04:20:07.746Z,76.10
2018-04-12T04:22:33.839Z,76.60
2018-04-12T04:24:59.866Z,77.30
2018-04-12T04:27:25.882Z,77.90
2018-04-12T04:29:51.914Z,77.90
2018-04-12T04:32:17.941Z,77.30
2018-04-12T04:34:44.826Z,77.40
2018-04-12T04:37:10.850Z,77.40
2018-04-12T04:39:37.737Z,77.40
2018-04-12T04:42:03.772Z,77.40
2018-04-12T04:44:30.628Z,77.60
2018-04-12T04:46:57.391Z,77.30
2018-04-12T04:49:23.446Z,77.30
2018-04-12T04:51:49.504Z,77.10
2018-04-12T04:54:16.247Z,77.90
2018-04-12T04:56:43.142Z,76.80
2018-04-12T04:59:09.182Z,76.80
2018-04-12T05:01:35.213Z,77.20
2018-04-12T05:04:01.336Z,78.00
2018-04-12T05:06:27.336Z,77.80
2018-04-12T05:08:53.395Z,78.90
2018-04-12T05:11:19.410Z,79.20
2018-04-12T05:13:45.557Z,79.20
2018-04-12T05:16:11.562Z,79.50
2018-04-12T05:18:37.638Z,80.90
2018-04-12T05:21:03.670Z,80.90
2018-04-12T05:23:30.427Z,80.50
2018-04-12T05:25:56.422Z,79.80
2018-04-12T05:28:22.562Z,79.70
2018-04-12T05:30:48.591Z,79.20
2018-04-12T05:33:14.595Z,78.90
2018-04-12T05:35:40.627Z,79.30
2018-04-12T05:38:06.663Z,79.20
2018-04-12T05:40:32.695Z,79.10
2018-04-12T05:42:58.716Z,78.80
2018-04-12T05:45:24.839Z,79.00
2018-04-12T05:47:50.859Z,79.10
2018-04-12T05:50:16.870Z,79.50
2018-04-12T05:52:42.898Z,80.40
2018-04-12T05:55:08.946Z,80.70
2018-04-12T05:57:34.985Z,81.50
2018-04-12T06:00:01.019Z,81.80
2018-04-12T06:02:27.200Z,82.60
2018-04-12T06:04:53.343Z,83.00
2018-04-12T06:07:19.385Z,83.00
2018-04-12T06:09:45.446Z,82.60
2018-04-12T06:12:11.454Z,82.20
2018-04-12T06:14:37.619Z,82.00
2018-04-12T06:17:03.656Z,81.40
2018-04-12T06:19:29.701Z,80.30
2018-04-12T06:21:55.699Z,79.60
2018-04-12T06:24:21.718Z,78.90
2018-04-12T06:26:47.710Z,78.40
2018-04-12T06:29:14.598Z,78.40
2018-04-12T06:31:41.347Z,78.80
2018-04-12T06:34:07.405Z,78.80
2018-04-12T06:36:33.399Z,77.90
2018-04-12T06:38:59.393Z,77.90
2018-04-12T06:41:25.443Z,77.30
2018-04-12T06:43:51.473Z,77.30
2018-04-12T06:46:17.502Z,77.40
2018-04-12T06:48:43.500Z,77.30
2018-04-12T06:51:09.692Z,76.60
2018-04-12T06:53:35.711Z,76.70
2018-04-12T06:56:01.729Z,75.20
2018-04-12T06:58:27.847Z,75.80
2018-04-12T07:00:54.640Z,75.60
2018-04-12T07:03:22.023Z,75.60
2018-04-12T07:05:48.067Z,75.40
2018-04-12T07:08:14.971Z,74.80
2018-04-12T07:10:40.987Z,74.70
2018-04-12T07:13:06.999Z,73.50
2018-04-12T07:15:33.036Z,73.20
2018-04-12T07:17:59.794Z,72.30
2018-04-12T07:20:25.832Z,72.30
2018-04-12T07:22:51.850Z,73.50
2018-04-12T07:25:17.955Z,72.60
2018-04-12T07:27:43.956Z,72.40
2018-04-12T07:30:10.022Z,72.30
2018-04-12T07:32:36.052Z,72.60
2018-04-12T07:35:02.115Z,72.40
2018-04-12T07:37:29.057Z,70.80
2018-04-12T07:39:55.055Z,70.80
2018-04-12T07:42:21.826Z,70.30
2018-04-12T07:44:47.836Z,70.30
2018-04-12T07:47:13.858Z,70.30
2018-04-12T07:49:39.928Z,68.90
2018-04-12T07:52:05.951Z,68.90
2018-04-12T07:54:32.106Z,69.00
2018-04-12T07:56:58.111Z,68.60
2018-04-12T07:59:24.143Z,67.40
2018-04-12T08:01:50.150Z,67.40
2018-04-12T08:04:16.198Z,66.60
2018-04-12T08:06:42.220Z,66.30
2018-04-12T08:09:08.401Z,67.50
2018-04-12T08:11:34.575Z,67.60
2018-04-12T08:14:01.336Z,67.00
2018-04-12T08:16:27.374Z,66.20
2018-04-12T08:18:53.428Z,65.90
2018-04-12T08:21:19.469Z,64.40
2018-04-12T08:23:45.494Z,64.10
2018-04-12T08:26:11.633Z,64.10
2018-04-12T08:28:37.659Z,63.80
2018-04-12T08:31:03.727Z,64.20
2018-04-12T08:33:29.767Z,64.80
2018-04-12T08:35:55.869Z,64.80
2018-04-12T08:38:21.938Z,62.60
2018-04-12T08:40:47.949Z,63.50
2018-04-12T08:43:14.067Z,62.80
2018-04-12T08:45:40.102Z,62.90
2018-04-12T08:48:06.168Z,61.40
2018-04-12T08:50:32.191Z,60.00
2018-04-12T08:52:58.965Z,57.90
2018-04-12T08:55:24.970Z,57.90
2018-04-12T08:57:51.106Z,57.40
2018-04-12T09:00:17.103Z,58.10
2018-04-12T09:02:43.122Z,58.10
2018-04-12T09:05:09.257Z,58.80
2018-04-12T09:07:36.023Z,58.60
2018-04-12T09:10:02.078Z,58.60
2018-04-12T09:12:28.101Z,57.80
2018-04-12T09:14:54.170Z,58.10
2018-04-12T09:17:20.938Z,56.10
2018-04-12T09:19:46.973Z,56.00
2018-04-12T09:22:13.026Z,56.10
2018-04-12T09:24:39.049Z,56.10
2018-04-12T09:27:05.106Z,54.40
2018-04-12T09:29:31.854Z,54.10
2018-04-12T09:31:58.611Z,54.80
2018-04-12T09:34:24.750Z,54.80
2018-04-12T09:36:50.775Z,53.30
2018-04-12T09:39:24.056Z,53.60
2018-04-12T09:41:57.606Z,54.50
2018-04-12T09:44:31.115Z,54.10
2018-04-12T09:47:04.293Z,53.20
2018-04-12T09:49:38.257Z,50.00
2018-04-12T09:52:11.382Z,50.40
2018-04-12T09:54:44.622Z,49.80
2018-04-12T09:57:18.721Z,50.40
2018-04-12T09:59:52.648Z,49.70
2018-04-12T10:02:27.075Z,47.50
2018-04-12T10:05:17.214Z,47.40
2018-04-12T10:07:43.350Z,46.70
2018-04-12T10:10:09.406Z,48.50
2018-04-12T10:12:35.462Z,48.20
2018-04-12T10:15:01.477Z,47.00
2018-04-12T10:17:27.579Z,47.10
2018-04-12T10:19:53.603Z,47.00
2018-04-12T10:22:19.654Z,47.70
2018-04-12T10:24:45.680Z,47.90
2018-04-12T10:27:11.715Z,46.40
2018-04-12T10:29:37.778Z,48.80
2018-04-12T10:32:03.801Z,47.00
2018-04-12T10:34:29.866Z,48.00
2018-04-12T10:36:55.892Z,46.10
2018-04-12T10:39:21.939Z,46.10
2018-04-12T10:41:47.972Z,46.30
2018-04-12T10:44:14.156Z,46.50
2018-04-12T10:46:40.179Z,47.00
2018-04-12T10:49:06.238Z,45.40
2018-04-12T10:51:32.291Z,44.10
2018-04-12T10:53:58.296Z,44.20
2018-04-12T10:56:24.338Z,44.80
2018-04-12T10:58:50.359Z,44.00
2018-04-12T11:01:16.499Z,45.30
2018-04-12T11:03:42.554Z,44.20
2018-04-12T11:06:08.609Z,43.70
2018-04-12T11:08:34.776Z,41.40
2018-04-12T11:11:01.556Z,42.90
2018-04-12T11:13:27.598Z,42.90
2018-04-12T11:15:53.670Z,42.70
2018-04-12T11:18:20.613Z,41.30
2018-04-12T11:20:47.367Z,39.80
2018-04-12T11:23:13.460Z,39.70
2018-04-12T11:25:40.235Z,40.60
2018-04-12T11:28:06.269Z,40.60
2018-04-12T11:30:32.299Z,37.90
2018-04-12T11:32:58.339Z,38.50
2018-04-12T11:35:24.426Z,37.70
2018-04-12T11:37:50.449Z,37.10
2018-04-12T11:40:16.597Z,34.10
2018-04-12T11:42:43.350Z,33.30
2018-04-12T11:45:09.445Z,33.40
2018-04-12T11:47:35.442Z,34.70
2018-04-12T11:50:02.332Z,34.40
2018-04-12T11:52:28.350Z,34.30
2018-04-12T11:54:54.387Z,34.80
2018-04-12T11:57:21.380Z,34.20
2018-04-12T11:59:48.166Z,33.80
2018-04-12T12:02:14.207Z,33.80
2018-04-12T12:04:40.237Z,33.40
2018-04-12T12:07:06.449Z,32.60
2018-04-12T12:09:32.609Z,33.10
2018-04-12T12:11:58.655Z,33.20
2018-04-12T12:14:25.413Z,34.50
2018-04-12T12:16:51.478Z,34.40
2018-04-12T12:19:17.566Z,33.50
2018-04-12T12:21:43.586Z,35.30
2018-04-12T12:24:09.746Z,33.50
2018-04-12T12:26:35.770Z,35.70
2018-04-12T12:29:01.807Z,37.50
2018-04-12T12:31:27.850Z,36.80
2018-04-12T12:33:54.660Z,35.10
2018-04-12T12:36:20.666Z,35.00
2018-04-12T12:38:46.681Z,35.00
2018-04-12T12:41:12.849Z,35.00
2018-04-12T12:43:38.875Z,34.80
2018-04-12T12:46:04.937Z,35.60
2018-04-12T12:48:31.010Z,36.30
2018-04-12T12:50:57.068Z,34.80
2018-04-12T12:53:23.802Z,35.20
2018-04-12T12:55:49.911Z,35.20
2018-04-12T12:58:15.919Z,35.80
2018-04-12T13:00:42.108Z,35.60
2018-04-12T13:03:08.152Z,35.60
2018-04-12T13:05:34.328Z,36.00
2018-04-12T13:08:00.390Z,34.50
2018-04-12T13:10:26.430Z,36.20
2018-04-12T13:12:52.451Z,35.70
2018-04-12T13:15:18.458Z,37.30
2018-04-12T13:17:44.618Z,37.20
2018-04-12T13:20:10.634Z,36.50
2018-04-12T13:22:36.670Z,39.30
2018-04-12T13:25:02.766Z,36.40
2018-04-12T13:27:28.799Z,38.70
2018-04-12T13:29:54.816Z,36.90
2018-04-12T13:32:20.981Z,36.60
2018-04-12T13:34:47.036Z,35.20
2018-04-12T13:37:13.102Z,36.00
2018-04-12T13:39:39.176Z,36.90
2018-04-12T13:42:05.950Z,37.90
2018-04-12T13:44:32.108Z,37.90
2018-04-12T13:46:58.129Z,38.10
2018-04-12T13:49:24.203Z,38.50
2018-04-12T13:51:50.242Z,39.50
2018-04-12T13:54:16.295Z,40.00
2018-04-12T13:56:42.377Z,41.10
2018-04-12T13:59:08.436Z,41.60
2018-04-12T14:01:34.467Z,39.50
2018-04-12T14:04:00.522Z,42.30
2018-04-12T14:06:26.738Z,45.20
2018-04-12T14:08:52.884Z,46.90
2018-04-12T14:11:19.696Z,45.70
2018-04-12T14:13:45.716Z,45.30
2018-04-12T14:16:11.815Z,47.70
2018-04-12T14:18:37.826Z,46.80
2018-04-12T14:21:03.864Z,47.60
2018-04-12T14:23:29.915Z,48.30
2018-04-12T14:25:55.932Z,49.10
2018-04-12T14:28:21.981Z,50.70
2018-04-12T14:30:48.001Z,50.90
2018-04-12T14:33:14.172Z,48.40
2018-04-12T14:35:40.183Z,50.40
2018-04-12T14:38:07.077Z,48.20
2018-04-12T14:40:33.152Z,48.20
2018-04-12T14:42:59.234Z,47.10
2018-04-12T14:45:25.309Z,47.80
2018-04-12T14:47:51.353Z,48.20
2018-04-12T14:50:17.447Z,47.70
2018-04-12T14:52:43.468Z,47.40
2018-04-12T14:55:10.352Z,47.90
2018-04-12T14:57:36.397Z,47.90
2018-04-12T15:00:02.462Z,47.60
2018-04-12T15:02:28.515Z,45.80
2018-04-12T15:04:54.704Z,48.60
2018-04-12T15:07:21.449Z,49.80
2018-04-12T15:09:48.226Z,49.30
2018-04-12T15:12:14.275Z,49.30
2018-04-12T15:14:40.299Z,49.50
2018-04-12T15:17:06.335Z,48.70
2018-04-12T15:19:32.344Z,50.00
2018-04-12T15:21:58.583Z,49.60
2018-04-12T15:24:24.670Z,48.50
2018-04-12T15:26:50.668Z,48.90
2018-04-12T15:29:17.493Z,49.10
2018-04-12T15:31:43.481Z,49.10
2018-04-12T15:34:09.680Z,50.20
2018-04-12T15:36:35.708Z,50.40
2018-04-12T15:39:01.742Z,50.50
2018-04-12T15:41:27.732Z,49.00
2018-04-12T15:43:55.609Z,45.80
2018-04-12T15:46:21.599Z,45.70
2018-04-12T15:48:47.603Z,43.90
2018-04-12T15:51:13.666Z,43.90
2018-04-12T15:53:39.760Z,42.80
2018-04-12T15:56:05.806Z,41.50
2018-04-12T15:58:32.558Z,42.70
2018-04-12T16:00:58.711Z,42.70
2018-04-12T16:03:24.888Z,40.80
2018-04-12T16:05:51.698Z,44.80
2018-04-12T16:08:17.723Z,44.80
2018-04-12T16:10:43.782Z,44.80
2018-04-12T16:13:10.554Z,45.90
2018-04-12T16:15:36.599Z,45.80
2018-04-12T16:18:02.755Z,45.20
2018-04-12T16:20:28.814Z,45.00
2018-04-12T16:22:54.858Z,44.90
2018-04-12T16:25:21.024Z,45.00
2018-04-12T16:27:47.618Z,45.80
2018-04-12T16:30:13.670Z,45.30
2018-04-12T16:32:39.713Z,46.60
2018-04-12T16:35:05.768Z,46.00
2018-04-12T16:37:31.864Z,46.50
2018-04-12T16:39:57.916Z,46.50
2018-04-12T16:42:24.730Z,46.60
2018-04-12T16:44:52.655Z,46.60
2018-04-12T16:47:20.700Z,44.80
2018-04-12T16:49:47.992Z,44.70
2018-04-12T16:52:14.035Z,44.10
2018-04-12T16:54:40.393Z,43.50
2018-04-12T16:57:07.229Z,41.70
2018-04-12T16:59:33.335Z,41.40
2018-04-12T17:01:59.524Z,42.50
2018-04-12T17:04:25.737Z,41.60
2018-04-12T17:06:51.946Z,39.50
2018-04-12T17:09:19.731Z,34.30
2018-04-12T17:11:46.984Z,34.00
2018-04-12T17:14:13.035Z,32.30
2018-04-12T17:16:39.095Z,32.30
2018-04-12T17:19:05.187Z,30.60
2018-04-12T17:21:31.251Z,31.60
2018-04-12T17:23:58.094Z,29.60
2018-04-12T17:26:24.130Z,29.50
2018-04-12T17:28:50.950Z,28.60
2018-04-12T17:31:16.989Z,28.60
2018-04-12T17:33:43.768Z,28.40
2018-04-12T17:36:10.278Z,28.40
2018-04-12T17:38:37.051Z,29.20
2018-04-12T17:41:03.100Z,29.10
2018-04-12T17:43:29.141Z,29.00
2018-04-12T17:45:55.168Z,29.60
2018-04-12T17:48:21.251Z,33.70
2018-04-12T17:50:47.434Z,43.30
2018-04-12T17:53:13.464Z,46.20
2018-04-12T17:55:40.319Z,49.40
2018-04-12T17:58:07.111Z,50.00
2018-04-12T18:00:33.132Z,49.90
2018-04-12T18:02:59.229Z,50.20
2018-04-12T18:05:25.427Z,50.90
2018-04-12T18:07:52.346Z,51.80
2018-04-12T18:10:18.390Z,51.70
2018-04-12T18:12:45.273Z,53.60
2018-04-12T18:15:11.302Z,52.90
2018-04-12T18:17:37.378Z,53.00
2018-04-12T18:20:03.453Z,53.60
2018-04-12T18:22:30.172Z,53.90
2018-04-12T18:24:56.258Z,53.80
2018-04-12T18:27:22.295Z,54.50
2018-04-12T18:29:48.420Z,54.70
2018-04-12T18:32:15.201Z,55.40
2018-04-12T18:34:41.282Z,54.80
2018-04-12T18:37:07.298Z,54.40
2018-04-12T18:39:33.403Z,54.40
2018-04-12T18:41:59.456Z,55.00
2018-04-12T18:44:26.282Z,55.40
2018-04-12T18:46:52.472Z,55.40
2018-04-12T18:49:18.519Z,55.70
2018-04-12T18:51:44.640Z,56.20
2018-04-12T18:54:10.665Z,55.80
2018-04-12T18:56:36.747Z,56.00
2018-04-12T18:59:02.760Z,55.90
2018-04-12T19:01:28.824Z,55.80
2018-04-12T19:03:54.865Z,55.80
2018-04-12T19:06:20.947Z,55.80
2018-04-12T19:08:47.135Z,56.20
2018-04-12T19:11:13.158Z,56.50
2018-04-12T19:13:39.246Z,56.00
2018-04-12T19:16:05.289Z,56.00
2018-04-12T19:18:31.321Z,56.10
2018-04-12T19:20:57.486Z,55.80
2018-04-12T19:23:24.285Z,56.40
2018-04-12T19:25:50.357Z,56.30
2018-04-12T19:28:16.390Z,56.10
2018-04-12T19:30:42.441Z,56.40
2018-04-12T19:33:08.470Z,56.40
2018-04-12T19:35:34.527Z,56.70
2018-04-12T19:38:00.552Z,56.30
2018-04-12T19:40:26.633Z,57.20
2018-04-12T19:42:52.678Z,56.40
2018-04-12T19:45:18.747Z,56.00
2018-04-12T19:47:45.578Z,56.20
2018-04-12T19:50:11.677Z,56.30
2018-04-12T19:52:37.896Z,56.00
2018-04-12T19:55:03.959Z,55.90
2018-04-12T19:57:30.725Z,56.00
2018-04-12T19:59:56.748Z,56.00
2018-04-12T20:02:22.823Z,56.50
2018-04-12T20:04:48.859Z,56.80
2018-04-12T20:07:15.818Z,57.40
2018-04-12T20:09:42.755Z,57.10
2018-04-12T20:12:09.531Z,57.20
2018-04-12T20:14:35.583Z,57.20
2018-04-12T20:17:01.660Z,57.30
2018-04-12T20:19:27.712Z,57.20
2018-04-12T20:21:53.728Z,57.30
2018-04-12T20:24:19.889Z,58.10
2018-04-12T20:26:45.982Z,57.80
2018-04-12T20:29:12.046Z,58.20
2018-04-12T20:31:38.080Z,58.70
2018-04-12T20:34:04.162Z,58.80
2018-04-12T20:36:30.182Z,59.10
2018-04-12T20:38:56.239Z,59.10
2018-04-12T20:41:22.419Z,59.30
2018-04-12T20:43:48.491Z,59.00
2018-04-12T20:46:14.579Z,59.60
2018-04-12T20:48:40.591Z,59.40
2018-04-12T20:51:06.631Z,60.50
2018-04-12T20:53:32.671Z,60.00
2018-04-12T20:55:58.764Z,60.20
2018-04-12T20:58:24.772Z,60.40
2018-04-12T21:00:51.555Z,60.90
2018-04-12T21:03:17.606Z,60.90
2018-04-12T21:05:43.799Z,60.10
2018-04-12T21:08:09.952Z,60.40
2018-04-12T21:10:35.975Z,59.90
2018-04-12T21:13:02.123Z,60.20
2018-04-12T21:15:28.911Z,60.00
2018-04-12T21:17:54.973Z,60.00
2018-04-12T21:20:20.999Z,61.30
2018-04-12T21:22:47.072Z,61.20
2018-04-12T21:25:13.107Z,61.20
2018-04-12T21:27:39.287Z,61.10
2018-04-12T21:30:05.368Z,61.20
2018-04-12T21:32:31.403Z,61.70
2018-04-12T21:34:57.459Z,62.00
2018-04-12T21:37:24.352Z,61.80
2018-04-12T21:39:51.120Z,61.20
2018-04-12T21:42:17.163Z,61.20
2018-04-12T21:44:43.311Z,61.00
2018-04-12T21:47:10.074Z,63.00
2018-04-12T21:49:36.151Z,63.00
2018-04-12T21:52:02.169Z,63.80
2018-04-12T21:54:28.203Z,63.70
2018-04-12T21:56:54.247Z,62.90
2018-04-12T21:59:21.011Z,62.50
2018-04-12T22:01:47.195Z,62.40
2018-04-12T22:04:13.365Z,62.80
2018-04-12T22:06:39.422Z,64.60
2018-04-12T22:09:05.467Z,64.30
2018-04-12T22:11:31.489Z,64.60
2018-04-12T22:13:57.496Z,64.40
2018-04-12T22:16:23.625Z,65.30
2018-04-12T22:18:49.629Z,66.10
2018-04-12T22:21:15.662Z,65.50
2018-04-12T22:23:41.703Z,65.00
2018-04-12T22:26:07.718Z,65.20
2018-04-12T22:28:33.751Z,65.20
2018-04-12T22:30:59.749Z,65.30
2018-04-12T22:33:25.873Z,65.90
2018-04-12T22:35:51.965Z,66.60
2018-04-12T22:38:18.021Z,66.70
2018-04-12T22:40:44.083Z,66.20
2018-04-12T22:43:10.119Z,66.80
2018-04-12T22:45:36.881Z,67.10
2018-04-12T22:48:03.110Z,67.80
2018-04-12T22:50:29.133Z,68.10
2018-04-12T22:52:55.134Z,67.70
2018-04-12T22:55:29.815Z,67.20
2018-04-12T22:58:03.023Z,67.30
2018-04-12T23:00:36.521Z,68.20
2018-04-12T23:03:10.442Z,68.60
2018-04-12T23:05:59.724Z,68.50
2018-04-12T23:08:49.988Z,69.20
2018-04-12T23:11:39.557Z,69.10
2018-04-12T23:14:29.366Z,69.40
2018-04-12T23:17:18.879Z,68.60
2018-04-12T23:20:08.714Z,68.10
2018-04-12T23:22:58.574Z,68.00
2018-04-12T23:25:48.699Z,68.10
2018-04-12T23:28:39.020Z,68.60
2018-04-12T23:31:29.016Z,68.10
2018-04-12T23:34:16.874Z,68.70
2018-04-12T23:36:43.068Z,68.50
2018-04-12T23:39:09.084Z,68.10
2018-04-12T23:41:35.095Z,68.30
2018-04-12T23:44:01.869Z,67.90
2018-04-12T23:46:27.927Z,67.80
2018-04-12T23:48:53.971Z,67.50
2018-04-12T23:51:20.761Z,67.80
2018-04-12T23:53:46.895Z,67.70
2018-04-12T23:56:12.915Z,68.10
2018-04-12T23:58:38.931Z,68.30
